KCNY/CNY METAR and TAF weather

Enter ICAO airport designator
Station Type Date Time Source
KCNY METAR 2018/04/19 12:53 UTC NOAA

KCNY 191253Z AUTO 14010KT 10SM CLR 06/M14 A2996 RMK AO2 SLP124 T00611139


Station Type Date Time Source
KCNY Decoded METAR 2018/04/19 12:53 UTC NOAA

MOAB CANYONLANDS FIELD, UT, United States (KCNY) 38-46N 109-45W 1390M
Apr 19, 2018 - 08:53 AM EDT / 2018.04.19 1253 UTC
Wind: from the SE (140 degrees) at 12 MPH (10 KT):0
Visibility: 10 mile(s):0
Sky conditions: clear
Temperature: 43.0 F (6.1 C)
Dew Point: 7.0 F (-13.9 C)
Relative Humidity: 22%
Pressure (altimeter): 29.96 in. Hg (1014 hPa)
ob: KCNY 191253Z AUTO 14010KT 10SM CLR 06/M14 A2996 RMK AO2 SLP124 T00611139
cycle: 13

Station Type Date Time Source
KCNY TAF 2018/04/19 12:28 UTC NOAA

TAF KCNY 191126Z 1912/2012 14010KT P6SM SCT150 OVC200
FM191500 14009KT P6SM FEW150 BKN200
FM191800 17013G22KT P6SM BKN150 BKN200
FM192100 18018G31KT P6SM BKN150 BKN200
FM200400 21013G21KT P6SM BKN140 BKN250


Example: see airport list